Time;durP1;ratioP1;P1;durP2;ratioP2;P2;SDS_P1;SDS_P2;PMS_P1;PMS_P2;Temp;Humidity;BMP_temperature;BMP_pressure;BME280_temperature;BME280_humidity;BME280_pressure;Samples;Min_cycle;Max_cycle;Signal;HPM_P1;HPM_P2
2021/11/10 00:02:10;;;;;;;1.60;1.30;;;5.90;98.20;;;;;;4988434;28;20627;-76
2021/11/10 00:04:36;;;;;;;1.60;1.30;;;5.80;98.20;;;;;;4988902;28;20870;-76
2021/11/10 00:07:04;;;;;;;1.63;1.40;;;5.80;98.20;;;;;;4988558;28;20469;-75
2021/11/10 00:09:30;;;;;;;1.60;1.40;;;5.70;98.20;;;;;;4990650;28;20655;-76
2021/11/10 00:11:57;;;;;;;1.60;1.30;;;5.70;98.20;;;;;;4991939;28;20468;-76
2021/11/10 00:14:24;;;;;;;1.70;1.50;;;5.60;98.20;;;;;;4992511;28;20465;-75
2021/11/10 00:16:55;;;;;;;1.60;1.30;;;5.60;98.20;;;;;;4991046;28;20465;-75
2021/11/10 00:19:21;;;;;;;1.63;1.40;;;5.50;98.20;;;;;;5001373;28;20468;-75
2021/11/10 00:21:48;;;;;;;1.60;1.30;;;5.50;98.20;;;;;;4992580;28;20476;-76
2021/11/10 00:24:15;;;;;;;1.60;1.40;;;5.40;98.20;;;;;;4991812;28;20469;-75
2021/11/10 00:26:42;;;;;;;1.60;1.40;;;5.40;98.20;;;;;;4992102;28;20496;-75
2021/11/10 00:29:08;;;;;;;1.60;1.27;;;5.30;98.20;;;;;;4991676;28;20484;-75
2021/11/10 00:31:35;;;;;;;1.70;1.50;;;5.30;98.20;;;;;;4991855;28;20476;-76
2021/11/10 00:34:03;;;;;;;1.70;1.50;;;5.30;98.20;;;;;;4991917;28;20472;-76
2021/11/10 00:36:30;;;;;;;1.60;1.43;;;5.20;98.20;;;;;;4991016;28;20461;-75
2021/11/10 00:38:58;;;;;;;1.60;1.30;;;5.20;98.20;;;;;;4991741;28;21119;-75
2021/11/10 00:41:25;;;;;;;1.60;1.40;;;5.10;98.20;;;;;;4991742;28;20511;-76
2021/11/10 00:43:51;;;;;;;1.60;1.40;;;5.10;98.20;;;;;;4991171;28;20469;-75
2021/11/10 00:46:18;;;;;;;1.60;1.40;;;5.10;98.20;;;;;;4988891;28;20488;-76
2021/11/10 00:48:45;;;;;;;1.60;1.40;;;5.10;98.20;;;;;;4990642;28;20514;-75
2021/11/10 00:51:13;;;;;;;1.63;1.37;;;5.00;98.20;;;;;;4990645;28;20476;-75
2021/11/10 00:53:39;;;;;;;1.63;1.40;;;5.00;98.20;;;;;;4991058;28;20476;-76
2021/11/10 00:56:06;;;;;;;1.60;1.40;;;5.00;98.20;;;;;;4991643;28;20463;-75
2021/11/10 00:58:33;;;;;;;1.70;1.50;;;4.90;98.20;;;;;;4991046;28;20488;-74
2021/11/10 01:01:00;;;;;;;1.60;1.40;;;4.90;98.20;;;;;;4990762;28;20476;-75
2021/11/10 01:03:27;;;;;;;1.70;1.60;;;4.90;98.20;;;;;;4991890;28;20476;-76
2021/11/10 01:05:55;;;;;;;1.60;1.50;;;4.90;98.20;;;;;;4991348;28;20495;-76
2021/11/10 01:08:23;;;;;;;1.60;1.40;;;4.90;98.20;;;;;;4991619;28;20480;-75
2021/11/10 01:10:50;;;;;;;1.60;1.40;;;4.90;98.20;;;;;;4991138;28;20960;-76
2021/11/10 01:13:17;;;;;;;1.60;1.40;;;4.90;98.20;;;;;;5001858;28;20460;-76
2021/11/10 01:15:45;;;;;;;1.60;1.40;;;4.90;98.20;;;;;;4992685;28;20463;-76
2021/11/10 01:18:11;;;;;;;1.67;1.50;;;4.80;98.20;;;;;;4990073;28;20516;-75
2021/11/10 01:20:39;;;;;;;1.60;1.40;;;4.80;98.20;;;;;;4990659;28;20469;-76
2021/11/10 01:23:06;;;;;;;1.70;1.50;;;4.80;98.20;;;;;;4990561;28;20465;-74
2021/11/10 01:25:34;;;;;;;1.60;1.50;;;4.80;98.20;;;;;;4990671;28;20485;-75
2021/11/10 01:28:01;;;;;;;1.70;1.50;;;4.80;98.20;;;;;;4990086;28;20485;-75
2021/11/10 01:30:28;;;;;;;2.67;2.47;;;4.80;98.20;;;;;;4990320;28;20556;-76
2021/11/10 01:32:55;;;;;;;1.60;1.40;;;4.80;98.20;;;;;;4990885;28;20468;-75
2021/11/10 01:35:22;;;;;;;1.70;1.50;;;4.70;98.20;;;;;;4989938;28;20484;-76
2021/11/10 01:37:49;;;;;;;1.60;1.40;;;4.70;98.20;;;;;;4989933;28;20481;-76
2021/11/10 01:40:18;;;;;;;1.63;1.40;;;4.60;98.20;;;;;;4990671;28;20469;-75
2021/11/10 01:42:47;;;;;;;1.60;1.40;;;4.60;98.20;;;;;;4990278;28;20960;-76
2021/11/10 01:45:16;;;;;;;1.70;1.50;;;4.60;98.20;;;;;;4989996;28;20489;-76
2021/11/10 01:47:45;;;;;;;1.67;1.43;;;4.70;98.20;;;;;;4988691;28;20484;-75
2021/11/10 01:50:15;;;;;;;1.70;1.50;;;4.60;98.20;;;;;;4989797;28;20488;-76
2021/11/10 01:52:43;;;;;;;1.60;1.40;;;4.60;98.20;;;;;;4989964;28;20472;-75
2021/11/10 01:55:12;;;;;;;1.60;1.50;;;4.60;98.20;;;;;;4990587;28;20568;-75
2021/11/10 01:57:39;;;;;;;1.60;1.47;;;4.60;98.20;;;;;;4989389;28;20496;-75
2021/11/10 02:00:12;;;;;;;1.60;1.40;;;4.60;98.20;;;;;;4998310;28;20746;-75
2021/11/10 02:02:41;;;;;;;1.70;1.50;;;4.60;98.20;;;;;;4984766;28;20927;-75
2021/11/10 02:05:10;;;;;;;1.60;1.40;;;4.50;98.20;;;;;;4984465;28;20468;-75
2021/11/10 02:07:38;;;;;;;1.67;1.50;;;4.50;98.20;;;;;;4990377;28;20505;-75
2021/11/10 02:10:06;;;;;;;1.60;1.40;;;4.50;98.20;;;;;;4995312;28;20503;-75
2021/11/10 02:12:34;;;;;;;1.60;1.40;;;4.50;98.20;;;;;;4989902;28;20465;-75
2021/11/10 02:15:02;;;;;;;1.60;1.40;;;4.60;98.20;;;;;;4989625;28;20495;-75
2021/11/10 02:17:30;;;;;;;1.63;1.50;;;4.60;98.20;;;;;;4988923;28;21018;-75
2021/11/10 02:19:57;;;;;;;1.80;1.70;;;4.60;98.20;;;;;;4989940;28;20480;-75
2021/11/10 02:22:25;;;;;;;1.67;1.40;;;4.70;98.20;;;;;;4989960;28;20473;-75
2021/11/10 02:24:52;;;;;;;1.63;1.40;;;4.70;98.20;;;;;;4989244;28;20483;-75
2021/11/10 02:27:21;;;;;;;1.60;1.40;;;4.70;98.20;;;;;;4989207;28;20885;-75
2021/11/10 02:29:50;;;;;;;1.70;1.50;;;4.70;98.20;;;;;;4988696;28;20942;-76
2021/11/10 02:32:17;;;;;;;1.60;1.40;;;4.70;98.20;;;;;;4987799;28;20472;-76
2021/11/10 02:34:47;;;;;;;1.60;1.43;;;4.60;98.20;;;;;;4989329;28;20473;-75
2021/11/10 02:37:17;;;;;;;1.60;1.40;;;4.60;98.20;;;;;;4987909;28;20581;-76
2021/11/10 02:39:45;;;;;;;1.60;1.50;;;4.50;98.20;;;;;;4983355;28;20475;-75
2021/11/10 02:42:14;;;;;;;1.73;1.63;;;4.50;98.20;;;;;;4987274;28;20493;-74
2021/11/10 02:44:41;;;;;;;1.63;1.40;;;4.50;98.20;;;;;;4985877;28;20469;-75
2021/11/10 02:47:10;;;;;;;1.63;1.40;;;4.50;98.20;;;;;;4987075;28;20481;-73
2021/11/10 02:49:37;;;;;;;1.70;1.47;;;4.50;98.20;;;;;;4988788;28;20465;-75
2021/11/10 02:52:06;;;;;;;1.60;1.50;;;4.40;98.20;;;;;;4989401;28;20479;-75
2021/11/10 02:54:34;;;;;;;1.60;1.37;;;4.40;98.20;;;;;;4988855;28;20476;-75
2021/11/10 02:57:05;;;;;;;1.60;1.40;;;4.40;98.20;;;;;;4988832;28;20472;-75
2021/11/10 02:59:32;;;;;;;1.60;1.40;;;4.40;98.20;;;;;;4989417;28;20751;-75
2021/11/10 03:02:02;;;;;;;1.60;1.47;;;4.40;98.20;;;;;;4989065;28;20551;-75
2021/11/10 03:04:32;;;;;;;1.67;1.50;;;4.40;98.20;;;;;;4989633;28;20457;-76
2021/11/10 03:07:00;;;;;;;1.63;1.40;;;4.40;98.20;;;;;;4993552;28;20485;-75
2021/11/10 03:09:28;;;;;;;1.70;1.60;;;4.30;98.20;;;;;;4989155;28;20873;-75
2021/11/10 03:11:57;;;;;;;1.60;1.40;;;4.30;98.20;;;;;;4988468;28;20473;-74
2021/11/10 03:14:27;;;;;;;1.67;1.43;;;4.30;98.20;;;;;;4989115;28;20853;-75
2021/11/10 03:16:54;;;;;;;1.63;1.40;;;4.30;98.20;;;;;;4988066;28;20833;-76
2021/11/10 03:19:21;;;;;;;1.60;1.40;;;4.30;98.20;;;;;;4988124;28;20475;-75
2021/11/10 03:21:48;;;;;;;1.70;1.50;;;4.30;98.20;;;;;;4988987;28;20560;-75
2021/11/10 03:24:16;;;;;;;1.70;1.50;;;4.20;98.20;;;;;;4988501;28;20488;-75
2021/11/10 03:26:43;;;;;;;1.60;1.50;;;4.20;98.20;;;;;;4987394;28;20488;-75
2021/11/10 03:29:10;;;;;;;1.60;1.40;;;4.20;98.20;;;;;;4988114;28;20485;-75
2021/11/10 03:31:39;;;;;;;1.60;1.40;;;4.20;98.20;;;;;;4988528;28;20469;-76
2021/11/10 03:34:07;;;;;;;1.67;1.50;;;4.10;98.20;;;;;;4988527;28;20465;-75
2021/11/10 03:36:35;;;;;;;1.67;1.40;;;4.10;98.20;;;;;;4987932;28;20469;-75
2021/11/10 03:39:01;;;;;;;1.70;1.60;;;4.10;98.20;;;;;;4988415;28;20492;-74
2021/11/10 03:41:28;;;;;;;1.70;1.50;;;4.10;98.20;;;;;;4988433;28;20469;-75
2021/11/10 03:43:55;;;;;;;1.70;1.50;;;4.10;98.20;;;;;;4988543;28;20464;-75
2021/11/10 03:46:23;;;;;;;1.70;1.50;;;4.00;98.20;;;;;;4991194;28;20976;-74
2021/11/10 03:48:52;;;;;;;1.60;1.50;;;4.00;98.20;;;;;;4989938;28;20849;-74
2021/11/10 03:51:19;;;;;;;1.63;1.40;;;4.00;98.20;;;;;;4992417;28;20872;-75
2021/11/10 03:53:47;;;;;;;1.70;1.60;;;4.00;98.20;;;;;;4991879;28;20464;-74
2021/11/10 03:56:14;;;;;;;1.63;1.50;;;3.90;98.20;;;;;;4991984;28;20867;-74
2021/11/10 03:58:41;;;;;;;1.60;1.50;;;3.90;98.20;;;;;;4997152;28;20476;-75
2021/11/10 04:01:08;;;;;;;1.70;1.50;;;3.90;98.20;;;;;;4992610;28;20472;-74
2021/11/10 04:03:36;;;;;;;1.63;1.40;;;3.90;98.20;;;;;;4992355;28;20901;-74
2021/11/10 04:06:04;;;;;;;1.67;1.40;;;3.90;98.20;;;;;;4991516;28;20492;-75
2021/11/10 04:08:31;;;;;;;1.70;1.60;;;3.90;98.20;;;;;;4991546;28;20489;-75
2021/11/10 04:10:59;;;;;;;1.67;1.47;;;3.90;98.20;;;;;;4991321;28;21019;-75
2021/11/10 04:13:27;;;;;;;1.63;1.50;;;3.90;98.20;;;;;;4990999;28;20552;-73
2021/11/10 04:15:54;;;;;;;1.63;1.40;;;3.90;98.20;;;;;;4998430;28;20469;-74
2021/11/10 04:18:21;;;;;;;1.60;1.40;;;3.90;98.20;;;;;;4990967;28;20539;-75
2021/11/10 04:20:48;;;;;;;1.70;1.53;;;3.90;98.20;;;;;;4991395;28;20897;-75
2021/11/10 04:23:16;;;;;;;1.60;1.50;;;3.90;98.20;;;;;;4991662;28;20945;-74
2021/11/10 04:25:43;;;;;;;1.63;1.40;;;3.90;98.20;;;;;;4991473;28;20475;-75
2021/11/10 04:28:11;;;;;;;1.63;1.50;;;3.80;98.20;;;;;;4991071;28;20489;-72
2021/11/10 04:30:38;;;;;;;1.63;1.47;;;3.80;98.20;;;;;;4990799;28;20522;-74
2021/11/10 04:33:05;;;;;;;1.70;1.50;;;3.80;98.20;;;;;;4991500;28;20839;-74
2021/11/10 04:35:32;;;;;;;1.67;1.50;;;3.80;98.20;;;;;;4990601;28;20473;-74
2021/11/10 04:37:59;;;;;;;1.60;1.40;;;3.80;98.20;;;;;;4990871;28;20830;-75
2021/11/10 04:40:27;;;;;;;1.60;1.40;;;3.70;98.20;;;;;;4999747;28;20883;-75
2021/11/10 04:42:54;;;;;;;1.60;1.50;;;3.70;98.20;;;;;;4993366;28;20464;-75
2021/11/10 04:45:26;;;;;;;1.67;1.50;;;3.70;98.20;;;;;;4991006;28;20479;-73
2021/11/10 04:47:52;;;;;;;1.60;1.50;;;3.70;98.20;;;;;;4989926;28;20831;-73
2021/11/10 04:50:19;;;;;;;1.60;1.50;;;3.70;98.20;;;;;;4991232;28;20465;-75
2021/11/10 04:52:46;;;;;;;1.60;1.40;;;3.60;98.20;;;;;;4991149;28;20523;-73
2021/11/10 04:55:14;;;;;;;1.67;1.50;;;3.60;98.20;;;;;;4989555;28;20473;-76
2021/11/10 04:57:42;;;;;;;1.70;1.50;;;3.50;98.20;;;;;;5000679;28;20480;-74
2021/11/10 05:00:10;;;;;;;1.70;1.50;;;3.50;98.20;;;;;;4991210;28;20575;-75
2021/11/10 05:02:37;;;;;;;1.67;1.50;;;3.50;98.20;;;;;;4993360;28;20464;-73
2021/11/10 05:05:05;;;;;;;1.70;1.50;;;3.50;98.20;;;;;;4994360;28;21004;-75
2021/11/10 05:07:32;;;;;;;1.67;1.50;;;3.40;98.20;;;;;;4990542;28;20501;-74
2021/11/10 05:09:59;;;;;;;1.70;1.50;;;3.40;98.20;;;;;;4990299;28;20465;-75
2021/11/10 05:12:26;;;;;;;1.70;1.60;;;3.40;98.20;;;;;;4991097;28;20480;-75
2021/11/10 05:14:55;;;;;;;1.67;1.50;;;3.30;98.20;;;;;;4990430;28;20465;-76
2021/11/10 05:17:22;;;;;;;1.63;1.50;;;3.30;98.20;;;;;;4990955;28;20485;-75
2021/11/10 05:19:50;;;;;;;1.67;1.50;;;3.30;98.20;;;;;;4990632;28;20468;-75
2021/11/10 05:22:17;;;;;;;1.63;1.50;;;3.30;98.20;;;;;;4989961;28;20485;-75
2021/11/10 05:24:44;;;;;;;1.67;1.50;;;3.20;98.20;;;;;;5001241;28;20873;-73
2021/11/10 05:27:10;;;;;;;1.67;1.50;;;3.20;98.20;;;;;;4997726;28;20863;-74
2021/11/10 05:29:37;;;;;;;1.67;1.50;;;3.20;98.20;;;;;;4995710;28;20461;-75
2021/11/10 05:32:06;;;;;;;1.70;1.60;;;3.20;98.20;;;;;;4990154;28;20465;-73
2021/11/10 05:34:33;;;;;;;1.63;1.50;;;3.20;98.20;;;;;;4989634;28;20468;-76
2021/11/10 05:37:00;;;;;;;1.63;1.50;;;3.10;98.20;;;;;;4989310;28;20507;-75
2021/11/10 05:39:27;;;;;;;1.63;1.50;;;3.10;98.20;;;;;;4991156;28;20746;-75
2021/11/10 05:41:56;;;;;;;1.67;1.50;;;3.10;98.20;;;;;;4989812;28;20480;-74
2021/11/10 05:44:23;;;;;;;1.70;1.60;;;3.10;98.20;;;;;;4990584;28;20492;-75
2021/11/10 05:46:50;;;;;;;1.70;1.60;;;3.10;98.20;;;;;;4989685;28;20496;-75
2021/11/10 05:49:18;;;;;;;1.70;1.60;;;3.00;98.20;;;;;;4991082;28;20993;-73
2021/11/10 05:51:45;;;;;;;1.67;1.50;;;3.00;98.20;;;;;;4990287;28;20812;-73
2021/11/10 05:54:12;;;;;;;1.67;1.50;;;3.00;98.20;;;;;;4989597;28;20469;-73
2021/11/10 05:56:42;;;;;;;1.70;1.60;;;2.90;98.20;;;;;;4996888;28;20456;-73
2021/11/10 05:59:09;;;;;;;1.70;1.60;;;2.90;98.20;;;;;;4990353;28;20480;-73
2021/11/10 06:01:37;;;;;;;1.63;1.50;;;2.90;98.20;;;;;;4989875;28;20469;-73
2021/11/10 06:04:04;;;;;;;1.67;1.50;;;2.90;98.20;;;;;;4989949;28;20465;-73
2021/11/10 06:06:32;;;;;;;1.67;1.57;;;2.90;98.20;;;;;;4988907;28;20469;-73
2021/11/10 06:08:59;;;;;;;1.70;1.60;;;2.90;98.20;;;;;;4989029;28;20476;-73
2021/11/10 06:11:26;;;;;;;1.70;1.60;;;2.90;98.20;;;;;;4995389;28;20527;-73
2021/11/10 06:13:53;;;;;;;1.70;1.60;;;2.80;98.20;;;;;;4989208;28;20583;-73
2021/11/10 06:16:20;;;;;;;1.70;1.60;;;2.80;98.20;;;;;;4991119;28;20464;-73
2021/11/10 06:18:48;;;;;;;1.67;1.50;;;2.80;98.20;;;;;;4992006;28;20481;-72
2021/11/10 06:21:15;;;;;;;1.63;1.50;;;2.80;98.20;;;;;;4992162;28;20483;-74
2021/11/10 06:23:43;;;;;;;1.70;1.60;;;2.80;98.20;;;;;;4990022;28;20465;-74
2021/11/10 06:26:10;;;;;;;1.63;1.50;;;2.80;98.20;;;;;;4989195;28;20465;-74
2021/11/10 06:28:38;;;;;;;1.70;1.50;;;2.80;98.20;;;;;;4998878;28;20493;-74
2021/11/10 06:31:05;;;;;;;1.67;1.50;;;2.80;98.20;;;;;;4991320;28;20464;-74
2021/11/10 06:33:32;;;;;;;1.63;1.50;;;2.80;98.20;;;;;;4990049;28;20491;-74
2021/11/10 06:35:59;;;;;;;1.70;1.60;;;2.80;98.20;;;;;;4988534;28;20979;-74
2021/11/10 06:38:29;;;;;;;1.63;1.53;;;2.80;98.20;;;;;;4988076;28;20481;-74
2021/11/10 06:40:57;;;;;;;1.70;1.60;;;2.80;98.20;;;;;;4988612;28;20461;-74
2021/11/10 06:43:26;;;;;;;1.60;1.50;;;2.80;98.20;;;;;;4989016;28;20623;-74
2021/11/10 06:45:53;;;;;;;1.60;1.50;;;2.80;98.20;;;;;;4987821;28;20484;-74
2021/11/10 06:48:20;;;;;;;1.70;1.60;;;2.80;98.20;;;;;;4987937;28;20856;-74
2021/11/10 06:50:47;;;;;;;1.70;1.60;;;2.80;98.20;;;;;;4988294;28;20472;-74
2021/11/10 06:53:14;;;;;;;1.70;1.60;;;2.80;98.20;;;;;;4988624;28;20853;-74
2021/11/10 06:55:41;;;;;;;1.67;1.50;;;2.80;98.20;;;;;;4988784;28;20922;-74
2021/11/10 06:58:10;;;;;;;1.67;1.50;;;2.80;98.20;;;;;;4988220;28;20481;-74
2021/11/10 07:00:37;;;;;;;1.60;1.50;;;2.80;98.20;;;;;;4988779;28;20542;-74
2021/11/10 07:03:05;;;;;;;1.60;1.40;;;2.80;98.20;;;;;;4988551;28;20471;-74
2021/11/10 07:05:32;;;;;;;1.67;1.50;;;2.80;98.20;;;;;;4989055;28;20473;-74
2021/11/10 07:07:58;;;;;;;1.60;1.50;;;2.80;98.20;;;;;;4989721;28;20523;-74
2021/11/10 07:10:25;;;;;;;1.63;1.50;;;2.80;98.20;;;;;;4993254;28;20871;-74
2021/11/10 07:12:52;;;;;;;1.70;1.60;;;2.80;98.20;;;;;;4989274;28;20808;-74
2021/11/10 07:15:20;;;;;;;1.70;1.60;;;2.90;98.20;;;;;;4986902;28;20488;-74
2021/11/10 07:17:47;;;;;;;1.63;1.53;;;2.90;98.20;;;;;;4988375;28;20687;-74
2021/11/10 07:20:14;;;;;;;1.60;1.50;;;2.90;98.20;;;;;;4993228;28;20504;-74
2021/11/10 07:22:41;;;;;;;1.63;1.50;;;2.90;98.20;;;;;;4993071;28;20473;-74
2021/11/10 07:25:09;;;;;;;1.70;1.60;;;2.90;98.20;;;;;;4992249;28;20559;-74
2021/11/10 07:27:36;;;;;;;1.70;1.60;;;2.90;98.20;;;;;;4990588;28;21147;-74
2021/11/10 07:30:03;;;;;;;1.70;1.60;;;3.00;98.20;;;;;;4991101;28;20465;-75
2021/11/10 07:32:32;;;;;;;1.60;1.40;;;3.00;98.20;;;;;;4992653;28;20465;-76
2021/11/10 07:34:59;;;;;;;1.63;1.50;;;3.10;98.20;;;;;;4991578;28;20850;-76
2021/11/10 07:37:26;;;;;;;1.60;1.50;;;3.10;98.20;;;;;;4991176;28;20858;-75
2021/11/10 07:39:52;;;;;;;1.63;1.50;;;3.10;98.20;;;;;;4990849;28;20960;-75
2021/11/10 07:42:19;;;;;;;1.63;1.50;;;3.20;98.20;;;;;;4991675;28;20481;-74
2021/11/10 07:44:46;;;;;;;1.70;1.60;;;3.30;98.20;;;;;;4992234;28;20469;-73
2021/11/10 07:47:16;;;;;;;1.70;1.60;;;3.30;98.20;;;;;;4992485;28;20500;-73
2021/11/10 07:49:45;;;;;;;1.60;1.43;;;3.40;98.20;;;;;;4999040;28;20465;-73
2021/11/10 07:52:13;;;;;;;1.60;1.50;;;3.50;98.20;;;;;;4992556;28;20475;-74
2021/11/10 07:54:40;;;;;;;1.60;1.50;;;3.50;98.20;;;;;;4992214;28;20471;-71
2021/11/10 07:57:07;;;;;;;1.80;1.70;;;3.50;98.20;;;;;;4990247;28;20500;-72
2021/11/10 07:59:35;;;;;;;1.70;1.60;;;3.60;98.20;;;;;;4991262;28;20696;-74
2021/11/10 08:02:02;;;;;;;1.60;1.50;;;3.60;98.20;;;;;;4999707;28;20465;-74
2021/11/10 08:04:28;;;;;;;1.70;1.60;;;3.70;98.20;;;;;;4994748;28;20461;-74
2021/11/10 08:06:56;;;;;;;1.70;1.60;;;3.90;98.20;;;;;;4996076;28;20461;-74
2021/11/10 08:09:24;;;;;;;1.60;1.40;;;4.00;98.20;;;;;;4997899;28;20467;-75
2021/11/10 08:11:51;;;;;;;1.60;1.40;;;4.20;98.20;;;;;;4991340;28;20472;-75
2021/11/10 08:14:19;;;;;;;1.60;1.40;;;4.40;98.20;;;;;;4988355;28;20982;-74
2021/11/10 08:16:46;;;;;;;1.67;1.50;;;4.50;98.20;;;;;;4990829;28;20908;-75
2021/11/10 08:19:13;;;;;;;1.60;1.40;;;4.70;98.20;;;;;;4990966;28;20491;-74
2021/11/10 08:21:40;;;;;;;1.67;1.50;;;4.80;98.20;;;;;;4991013;28;20468;-75
2021/11/10 08:24:09;;;;;;;1.67;1.40;;;4.90;98.20;;;;;;4990472;28;20485;-74
2021/11/10 08:26:35;;;;;;;1.63;1.50;;;5.00;98.20;;;;;;4982916;28;20573;-74
2021/11/10 08:29:02;;;;;;;1.67;1.50;;;5.10;98.20;;;;;;4988335;28;20500;-74
2021/11/10 08:31:29;;;;;;;1.63;1.40;;;5.20;98.20;;;;;;4987235;28;20491;-72
2021/11/10 08:33:57;;;;;;;1.63;1.40;;;5.40;98.20;;;;;;4987443;28;20687;-75
2021/11/10 08:36:26;;;;;;;1.63;1.40;;;5.50;98.20;;;;;;4987732;28;20567;-74
2021/11/10 08:38:52;;;;;;;1.60;1.40;;;5.60;98.20;;;;;;4988089;28;20488;-75
2021/11/10 08:41:21;;;;;;;1.67;1.40;;;5.70;98.20;;;;;;4989100;28;20826;-75
2021/11/10 08:43:49;;;;;;;1.67;1.40;;;5.90;98.20;;;;;;4986265;28;20535;-75
2021/11/10 08:46:16;;;;;;;1.60;1.30;;;6.00;98.20;;;;;;4986757;28;20464;-74
2021/11/10 08:48:44;;;;;;;1.60;1.30;;;6.10;98.20;;;;;;4986358;28;20868;-74
2021/11/10 08:51:10;;;;;;;1.60;1.40;;;6.20;98.20;;;;;;4987290;28;20475;-74
2021/11/10 08:53:37;;;;;;;1.63;1.30;;;6.30;98.20;;;;;;4987141;28;20468;-74
2021/11/10 08:56:05;;;;;;;1.70;1.40;;;6.40;98.20;;;;;;4987199;28;20460;-74
2021/11/10 08:58:34;;;;;;;1.60;1.30;;;6.50;98.20;;;;;;5001632;28;20480;-72
2021/11/10 09:01:01;;;;;;;1.63;1.40;;;6.70;98.20;;;;;;5001640;28;20461;-73
2021/11/10 09:03:29;;;;;;;1.67;1.30;;;6.80;98.20;;;;;;4994424;28;20643;-72
2021/11/10 09:05:56;;;;;;;1.60;1.20;;;6.90;98.20;;;;;;4999706;28;20484;-72
2021/11/10 09:08:26;;;;;;;1.60;1.40;;;7.00;98.20;;;;;;5000825;28;20513;-72
2021/11/10 09:10:53;;;;;;;1.63;1.30;;;7.10;98.20;;;;;;5000418;28;20461;-73
2021/11/10 09:13:21;;;;;;;1.63;1.30;;;7.20;98.20;;;;;;4997778;28;20464;-72
2021/11/10 09:15:50;;;;;;;1.60;1.30;;;7.30;98.20;;;;;;5004343;28;20472;-72
2021/11/10 09:18:27;;;;;;;1.60;1.20;;;7.40;98.20;;;;;;5005170;28;20566;-73
2021/11/10 09:20:55;;;;;;;1.60;1.30;;;7.50;98.20;;;;;;5007221;28;20612;-72
2021/11/10 09:23:22;;;;;;;1.60;1.30;;;7.60;98.20;;;;;;4999735;28;20516;-73
2021/11/10 09:25:50;;;;;;;1.60;1.20;;;7.80;98.20;;;;;;4999439;28;20473;-73
2021/11/10 09:28:20;;;;;;;1.60;1.20;;;7.90;98.20;;;;;;5001259;28;20503;-72
2021/11/10 09:30:53;;;;;;;1.60;1.20;;;8.10;98.20;;;;;;4999148;28;20554;-73
2021/11/10 09:33:21;;;;;;;1.60;1.30;;;8.30;98.20;;;;;;5000435;28;20469;-73
2021/11/10 09:35:49;;;;;;;1.60;1.23;;;8.40;98.20;;;;;;4998134;28;20466;-74
2021/11/10 09:38:16;;;;;;;1.60;1.27;;;8.60;98.20;;;;;;5000701;28;20544;-73
2021/11/10 09:40:44;;;;;;;1.60;1.20;;;8.70;98.20;;;;;;4997373;28;21063;-71
2021/11/10 09:43:13;;;;;;;2.50;2.30;;;8.90;98.20;;;;;;5000323;28;20532;-72
2021/11/10 09:45:41;;;;;;;1.60;1.20;;;9.00;98.20;;;;;;5004275;28;20464;-73
2021/11/10 09:48:10;;;;;;;1.60;1.20;;;9.20;98.20;;;;;;4998014;28;20488;-74
2021/11/10 09:50:43;;;;;;;1.60;1.20;;;9.30;98.20;;;;;;4999548;28;20569;-73
2021/11/10 09:53:14;;;;;;;1.60;1.10;;;9.50;98.20;;;;;;5000941;28;20464;-74
2021/11/10 09:55:44;;;;;;;1.60;1.10;;;9.70;98.20;;;;;;5000409;28;20831;-74
2021/11/10 09:58:16;;;;;;;1.60;1.10;;;9.90;98.20;;;;;;4997779;28;20485;-72
2021/11/10 10:00:47;;;;;;;1.60;1.10;;;10.10;98.20;;;;;;4999446;28;20467;-72
2021/11/10 10:03:16;;;;;;;1.60;1.20;;;10.20;98.20;;;;;;4998557;28;20536;-72
2021/11/10 10:05:45;;;;;;;1.60;1.20;;;10.30;98.20;;;;;;4997008;28;20469;-71
2021/11/10 10:08:15;;;;;;;1.60;1.20;;;10.50;98.20;;;;;;5000973;28;20489;-72
2021/11/10 10:10:42;;;;;;;1.60;1.10;;;10.50;98.10;;;;;;4991703;28;20914;-72
2021/11/10 10:13:09;;;;;;;1.60;1.00;;;10.50;98.20;;;;;;4993151;28;20489;-73
2021/11/10 10:15:37;;;;;;;1.60;1.00;;;10.50;98.20;;;;;;4998127;28;20465;-76
2021/11/10 10:18:16;;;;;;;1.60;1.20;;;10.60;98.20;;;;;;4993555;28;20507;-73
2021/11/10 10:20:44;;;;;;;1.60;1.17;;;10.60;98.20;;;;;;4998265;28;20469;-74
2021/11/10 10:23:15;;;;;;;1.60;1.20;;;10.60;97.60;;;;;;4999030;28;20949;-73
2021/11/10 10:25:45;;;;;;;1.60;1.10;;;10.60;98.20;;;;;;4999176;28;20898;-73
2021/11/10 10:28:14;;;;;;;1.60;1.20;;;10.70;98.20;;;;;;4992981;28;21247;-73
2021/11/10 10:30:45;;;;;;;1.60;1.20;;;10.60;98.00;;;;;;4993553;28;20693;-73
2021/11/10 10:33:15;;;;;;;1.60;1.10;;;10.60;98.20;;;;;;4999429;28;20468;-74
2021/11/10 10:35:53;;;;;;;1.60;1.27;;;10.60;98.00;;;;;;4997040;28;20496;-75
2021/11/10 10:38:23;;;;;;;1.60;1.10;;;10.50;98.20;;;;;;4993868;28;20588;-74
2021/11/10 10:40:54;;;;;;;1.60;1.10;;;10.50;97.20;;;;;;4985089;28;21507;-76
2021/11/10 10:43:23;;;;;;;1.60;1.17;;;10.50;97.50;;;;;;4982154;28;20948;-75
2021/11/10 10:45:52;;;;;;;1.57;1.10;;;10.40;97.90;;;;;;4982324;28;20971;-76
2021/11/10 10:48:23;;;;;;;1.57;1.10;;;10.30;97.70;;;;;;4983655;28;20604;-76
2021/11/10 10:50:53;;;;;;;1.57;1.10;;;10.30;97.80;;;;;;4984151;28;20475;-75
2021/11/10 10:53:31;;;;;;;1.60;1.10;;;10.30;98.20;;;;;;4983371;28;20461;-75
2021/11/10 10:55:58;;;;;;;1.57;1.10;;;10.30;97.60;;;;;;4980636;28;20955;-75
2021/11/10 10:58:35;;;;;;;1.60;1.10;;;10.30;97.90;;;;;;4978028;28;20519;-74
2021/11/10 11:01:24;;;;;;;1.50;1.10;;;10.30;97.50;;;;;;4977016;28;20468;-73
2021/11/10 11:03:58;;;;;;;1.57;1.20;;;10.30;98.20;;;;;;4977226;28;20449;-73
2021/11/10 11:06:27;;;;;;;1.60;1.13;;;10.30;97.80;;;;;;4973668;28;20547;-74
2021/11/10 11:08:56;;;;;;;1.57;1.10;;;10.40;97.70;;;;;;4976965;28;20876;-74
2021/11/10 11:11:38;;;;;;;1.53;1.10;;;10.50;98.00;;;;;;4983787;28;21146;-76
2021/11/10 11:14:15;;;;;;;1.53;1.10;;;10.60;97.10;;;;;;5002110;28;20461;-74
2021/11/10 11:17:04;;;;;;;1.60;1.10;;;10.60;97.70;;;;;;4997397;28;20607;-74
2021/11/10 11:19:36;;;;;;;1.53;1.10;;;10.70;97.20;;;;;;4989228;28;20479;-74
2021/11/10 11:22:04;;;;;;;1.60;1.17;;;10.70;96.80;;;;;;4982154;28;20854;-75
2021/11/10 11:24:36;;;;;;;1.53;1.10;;;10.70;96.60;;;;;;4981983;28;20469;-75
2021/11/10 11:27:31;;;;;;;1.57;1.10;;;10.70;96.70;;;;;;4979081;28;20476;-74
2021/11/10 11:30:08;;;;;;;1.60;1.10;;;10.80;96.90;;;;;;4984416;28;20492;-74
2021/11/10 11:32:37;;;;;;;1.50;1.00;;;10.80;97.20;;;;;;4984994;28;20467;-76
2021/11/10 11:35:14;;;;;;;1.57;1.07;;;10.90;97.70;;;;;;4977981;28;21051;-75
2021/11/10 11:37:43;;;;;;;1.53;1.10;;;11.00;97.40;;;;;;4969903;28;20485;-75
2021/11/10 11:40:12;;;;;;;1.60;1.10;;;11.10;95.90;;;;;;4980516;28;20465;-75
2021/11/10 11:42:39;;;;;;;1.53;1.10;;;10.90;95.10;;;;;;4986397;28;21247;-76
2021/11/10 11:45:09;;;;;;;1.67;1.30;;;10.90;95.90;;;;;;4986006;28;20479;-75
2021/11/10 11:47:36;;;;;;;1.60;1.10;;;10.90;96.40;;;;;;4983743;28;20493;-75
2021/11/10 11:50:04;;;;;;;1.60;1.10;;;11.00;97.90;;;;;;4979122;28;21299;-75
2021/11/10 11:52:34;;;;;;;1.57;1.10;;;11.10;97.20;;;;;;4984598;28;20465;-75
2021/11/10 11:55:08;;;;;;;1.60;1.10;;;11.20;97.20;;;;;;4948121;28;20506;-75
2021/11/10 11:57:37;;;;;;;1.70;1.50;;;11.30;97.50;;;;;;4943050;29;20501;-75
2021/11/10 12:00:06;;;;;;;1.60;1.03;;;11.40;96.50;;;;;;4941112;29;20634;-75
2021/11/10 12:02:38;;;;;;;1.60;1.10;;;11.40;96.80;;;;;;4935787;29;20463;-77
2021/11/10 12:05:18;;;;;;;1.50;1.00;;;11.40;95.70;;;;;;4943820;28;20473;-74
2021/11/10 12:07:51;;;;;;;1.50;1.07;;;11.40;95.60;;;;;;4940826;28;21316;-75
2021/11/10 12:10:39;;;;;;;1.60;1.00;;;11.40;96.40;;;;;;4945459;28;20502;-75
2021/11/10 12:13:13;;;;;;;1.60;1.10;;;11.50;96.10;;;;;;4939100;28;20468;-75
2021/11/10 12:16:00;;;;;;;1.53;1.03;;;11.50;95.60;;;;;;4946368;28;20845;-73
2021/11/10 12:18:28;;;;;;;1.53;1.00;;;11.40;95.10;;;;;;4942249;29;20483;-73
2021/11/10 12:20:59;;;;;;;1.57;1.10;;;11.40;96.20;;;;;;4945231;29;20995;-73
2021/11/10 12:24:02;;;;;;;1.53;1.10;;;11.40;97.30;;;;;;4949496;29;20459;-73
2021/11/10 12:26:29;;;;;;;1.57;1.10;;;11.50;95.00;;;;;;4946255;28;21284;-74
2021/11/10 12:28:57;;;;;;;1.53;1.07;;;11.40;93.10;;;;;;4944478;28;21384;-75
2021/11/10 12:31:28;;;;;;;1.57;1.10;;;11.40;93.80;;;;;;4943681;29;20482;-75
2021/11/10 12:33:57;;;;;;;1.60;1.10;;;11.40;93.70;;;;;;4941874;29;20475;-74
2021/11/10 12:36:51;;;;;;;1.57;1.00;;;11.30;93.10;;;;;;4940269;29;20472;-75
2021/11/10 12:39:29;;;;;;;2.00;1.73;;;11.30;93.60;;;;;;4946384;29;20487;-75
2021/11/10 12:41:59;;;;;;;1.57;1.00;;;11.40;93.50;;;;;;4942121;28;20470;-74
2021/11/10 12:44:29;;;;;;;1.50;1.00;;;11.40;95.50;;;;;;4945757;29;20474;-74
2021/11/10 12:46:56;;;;;;;1.50;1.00;;;11.40;95.70;;;;;;4944314;28;20984;-75
2021/11/10 12:49:23;;;;;;;1.53;1.00;;;11.50;95.70;;;;;;4945052;28;21017;-74
2021/11/10 12:52:16;;;;;;;1.57;1.00;;;11.50;94.70;;;;;;4942806;28;20512;-74
2021/11/10 12:54:47;;;;;;;1.57;1.10;;;11.20;95.00;;;;;;4943583;28;20844;-74
2021/11/10 12:57:31;;;;;;;1.53;1.10;;;11.10;95.50;;;;;;4935455;29;21877;-74
2021/11/10 12:59:58;;;;;;;1.53;1.00;;;11.00;95.50;;;;;;4940084;28;20958;-74
2021/11/10 13:02:26;;;;;;;1.60;1.10;;;10.90;95.70;;;;;;4945546;29;20458;-74
2021/11/10 13:04:54;;;;;;;1.53;1.00;;;10.90;95.80;;;;;;4945306;29;20992;-74